sensor_id;sensor_type;location;lat;lon;timestamp;P1;durP1;ratioP1;P2;durP2;ratioP2
553;SDS011;59;48.778;9.156;2022-08-14T00:00:14;5.00;;;4.70;;
553;SDS011;59;48.778;9.156;2022-08-14T00:02:41;6.00;;;4.97;;
553;SDS011;59;48.778;9.156;2022-08-14T00:05:08;5.93;;;5.30;;
553;SDS011;59;48.778;9.156;2022-08-14T00:07:36;5.37;;;4.53;;
553;SDS011;59;48.778;9.156;2022-08-14T00:10:05;6.83;;;4.80;;
553;SDS011;59;48.778;9.156;2022-08-14T00:12:34;6.70;;;4.73;;
553;SDS011;59;48.778;9.156;2022-08-14T00:15:05;5.80;;;4.37;;
553;SDS011;59;48.778;9.156;2022-08-14T00:17:33;5.13;;;4.20;;
553;SDS011;59;48.778;9.156;2022-08-14T00:19:59;4.87;;;4.40;;
553;SDS011;59;48.778;9.156;2022-08-14T00:22:25;5.17;;;4.60;;
553;SDS011;59;48.778;9.156;2022-08-14T00:24:50;4.30;;;4.00;;
553;SDS011;59;48.778;9.156;2022-08-14T00:27:16;5.00;;;4.40;;
553;SDS011;59;48.778;9.156;2022-08-14T00:29:42;4.97;;;4.30;;
553;SDS011;59;48.778;9.156;2022-08-14T00:32:08;7.30;;;4.80;;
553;SDS011;59;48.778;9.156;2022-08-14T00:34:33;6.23;;;4.40;;
553;SDS011;59;48.778;9.156;2022-08-14T00:36:59;5.40;;;4.13;;
553;SDS011;59;48.778;9.156;2022-08-14T00:39:25;5.03;;;4.40;;
553;SDS011;59;48.778;9.156;2022-08-14T00:41:50;5.43;;;4.87;;
553;SDS011;59;48.778;9.156;2022-08-14T00:44:16;4.63;;;4.27;;
553;SDS011;59;48.778;9.156;2022-08-14T00:46:41;5.77;;;4.60;;
553;SDS011;59;48.778;9.156;2022-08-14T00:49:09;4.63;;;4.40;;
553;SDS011;59;48.778;9.156;2022-08-14T00:51:37;6.17;;;5.00;;
553;SDS011;59;48.778;9.156;2022-08-14T00:54:02;4.60;;;4.30;;
553;SDS011;59;48.778;9.156;2022-08-14T00:56:29;4.97;;;4.67;;
553;SDS011;59;48.778;9.156;2022-08-14T00:58:54;5.20;;;4.90;;
553;SDS011;59;48.778;9.156;2022-08-14T01:01:20;4.53;;;4.17;;
553;SDS011;59;48.778;9.156;2022-08-14T01:03:46;7.03;;;4.53;;
553;SDS011;59;48.778;9.156;2022-08-14T01:06:12;4.80;;;4.30;;
553;SDS011;59;48.778;9.156;2022-08-14T01:08:42;6.33;;;4.63;;
553;SDS011;59;48.778;9.156;2022-08-14T01:11:10;6.00;;;4.60;;
553;SDS011;59;48.778;9.156;2022-08-14T01:13:40;4.70;;;4.40;;
553;SDS011;59;48.778;9.156;2022-08-14T01:16:08;4.73;;;4.23;;
553;SDS011;59;48.778;9.156;2022-08-14T01:18:35;5.07;;;4.40;;
553;SDS011;59;48.778;9.156;2022-08-14T01:24:03;5.37;;;5.07;;
553;SDS011;59;48.778;9.156;2022-08-14T01:26:31;5.10;;;4.47;;
553;SDS011;59;48.778;9.156;2022-08-14T01:28:59;6.13;;;5.23;;
553;SDS011;59;48.778;9.156;2022-08-14T01:31:26;6.30;;;5.20;;
553;SDS011;59;48.778;9.156;2022-08-14T01:33:54;7.07;;;4.70;;
553;SDS011;59;48.778;9.156;2022-08-14T01:36:21;6.87;;;5.27;;
553;SDS011;59;48.778;9.156;2022-08-14T01:38:49;6.60;;;5.27;;
553;SDS011;59;48.778;9.156;2022-08-14T01:41:17;5.23;;;4.77;;
553;SDS011;59;48.778;9.156;2022-08-14T01:46:23;4.90;;;4.40;;
553;SDS011;59;48.778;9.156;2022-08-14T01:48:49;4.43;;;4.00;;
553;SDS011;59;48.778;9.156;2022-08-14T01:51:17;4.30;;;4.00;;
553;SDS011;59;48.778;9.156;2022-08-14T01:53:53;4.00;;;3.90;;
553;SDS011;59;48.778;9.156;2022-08-14T01:56:21;4.30;;;4.00;;
553;SDS011;59;48.778;9.156;2022-08-14T01:58:57;4.80;;;4.20;;
553;SDS011;59;48.778;9.156;2022-08-14T02:01:22;5.00;;;4.37;;
553;SDS011;59;48.778;9.156;2022-08-14T02:03:48;4.50;;;4.00;;
553;SDS011;59;48.778;9.156;2022-08-14T02:06:14;4.60;;;3.73;;
553;SDS011;59;48.778;9.156;2022-08-14T02:08:40;4.70;;;4.40;;
553;SDS011;59;48.778;9.156;2022-08-14T02:11:07;5.67;;;4.53;;
553;SDS011;59;48.778;9.156;2022-08-14T02:13:41;5.60;;;4.77;;
553;SDS011;59;48.778;9.156;2022-08-14T02:16:09;5.67;;;4.80;;
553;SDS011;59;48.778;9.156;2022-08-14T02:18:36;5.27;;;4.70;;
553;SDS011;59;48.778;9.156;2022-08-14T02:21:03;5.27;;;5.00;;
553;SDS011;59;48.778;9.156;2022-08-14T02:23:32;4.60;;;4.33;;
553;SDS011;59;48.778;9.156;2022-08-14T02:25:58;4.63;;;4.37;;
553;SDS011;59;48.778;9.156;2022-08-14T02:28:26;5.97;;;4.63;;
553;SDS011;59;48.778;9.156;2022-08-14T02:30:54;5.13;;;4.50;;
553;SDS011;59;48.778;9.156;2022-08-14T02:33:20;5.00;;;4.73;;
553;SDS011;59;48.778;9.156;2022-08-14T02:35:47;4.93;;;4.50;;
553;SDS011;59;48.778;9.156;2022-08-14T02:38:13;6.13;;;4.60;;
553;SDS011;59;48.778;9.156;2022-08-14T02:40:38;5.27;;;4.97;;
553;SDS011;59;48.778;9.156;2022-08-14T02:43:04;5.37;;;4.70;;
553;SDS011;59;48.778;9.156;2022-08-14T02:45:31;5.63;;;5.33;;
553;SDS011;59;48.778;9.156;2022-08-14T02:47:58;4.90;;;4.50;;
553;SDS011;59;48.778;9.156;2022-08-14T02:50:28;6.27;;;5.30;;
553;SDS011;59;48.778;9.156;2022-08-14T02:52:54;5.63;;;4.77;;
553;SDS011;59;48.778;9.156;2022-08-14T02:55:20;5.53;;;5.10;;
553;SDS011;59;48.778;9.156;2022-08-14T02:57:47;5.37;;;5.00;;
553;SDS011;59;48.778;9.156;2022-08-14T03:00:15;7.67;;;5.27;;
553;SDS011;59;48.778;9.156;2022-08-14T03:02:41;5.80;;;4.67;;
553;SDS011;59;48.778;9.156;2022-08-14T03:05:07;5.33;;;5.03;;
553;SDS011;59;48.778;9.156;2022-08-14T03:07:35;4.73;;;4.43;;
553;SDS011;59;48.778;9.156;2022-08-14T03:10:01;4.90;;;4.63;;
553;SDS011;59;48.778;9.156;2022-08-14T03:12:27;4.90;;;4.63;;
553;SDS011;59;48.778;9.156;2022-08-14T03:14:53;6.43;;;4.67;;
553;SDS011;59;48.778;9.156;2022-08-14T03:17:18;5.47;;;4.40;;
553;SDS011;59;48.778;9.156;2022-08-14T03:19:44;4.50;;;4.20;;
553;SDS011;59;48.778;9.156;2022-08-14T03:22:09;4.63;;;4.33;;
553;SDS011;59;48.778;9.156;2022-08-14T03:24:35;4.47;;;4.23;;
553;SDS011;59;48.778;9.156;2022-08-14T03:27:01;4.83;;;4.27;;
553;SDS011;59;48.778;9.156;2022-08-14T03:29:27;4.27;;;3.70;;
553;SDS011;59;48.778;9.156;2022-08-14T03:31:56;3.90;;;3.70;;
553;SDS011;59;48.778;9.156;2022-08-14T03:34:23;4.63;;;4.10;;
553;SDS011;59;48.778;9.156;2022-08-14T03:36:50;4.83;;;4.00;;
553;SDS011;59;48.778;9.156;2022-08-14T03:39:20;4.53;;;4.30;;
553;SDS011;59;48.778;9.156;2022-08-14T03:41:48;4.93;;;4.63;;
553;SDS011;59;48.778;9.156;2022-08-14T03:44:14;6.30;;;4.90;;
553;SDS011;59;48.778;9.156;2022-08-14T03:46:40;5.33;;;4.40;;
553;SDS011;59;48.778;9.156;2022-08-14T03:49:07;6.83;;;4.83;;
553;SDS011;59;48.778;9.156;2022-08-14T03:51:33;4.70;;;4.50;;
553;SDS011;59;48.778;9.156;2022-08-14T03:54:00;5.67;;;5.00;;
553;SDS011;59;48.778;9.156;2022-08-14T03:56:27;4.90;;;4.00;;
553;SDS011;59;48.778;9.156;2022-08-14T03:58:56;4.53;;;4.30;;
553;SDS011;59;48.778;9.156;2022-08-14T04:01:26;4.53;;;4.23;;
553;SDS011;59;48.778;9.156;2022-08-14T04:03:53;4.50;;;4.13;;
553;SDS011;59;48.778;9.156;2022-08-14T04:06:22;4.77;;;4.47;;
553;SDS011;59;48.778;9.156;2022-08-14T04:08:48;5.10;;;4.70;;
553;SDS011;59;48.778;9.156;2022-08-14T04:11:14;6.73;;;4.80;;
553;SDS011;59;48.778;9.156;2022-08-14T04:13:41;8.23;;;4.70;;
553;SDS011;59;48.778;9.156;2022-08-14T04:16:08;5.10;;;4.57;;
553;SDS011;59;48.778;9.156;2022-08-14T04:18:42;5.97;;;4.43;;
553;SDS011;59;48.778;9.156;2022-08-14T04:21:10;6.07;;;5.40;;
553;SDS011;59;48.778;9.156;2022-08-14T04:23:36;4.50;;;4.20;;
553;SDS011;59;48.778;9.156;2022-08-14T04:26:04;5.37;;;5.07;;
553;SDS011;59;48.778;9.156;2022-08-14T04:28:32;5.63;;;4.57;;
553;SDS011;59;48.778;9.156;2022-08-14T04:31:00;4.47;;;4.17;;
553;SDS011;59;48.778;9.156;2022-08-14T04:33:26;5.63;;;5.23;;
553;SDS011;59;48.778;9.156;2022-08-14T04:35:53;7.23;;;5.10;;
553;SDS011;59;48.778;9.156;2022-08-14T04:38:19;5.70;;;4.87;;
553;SDS011;59;48.778;9.156;2022-08-14T04:41:04;5.60;;;4.80;;
553;SDS011;59;48.778;9.156;2022-08-14T04:43:49;7.67;;;5.00;;
553;SDS011;59;48.778;9.156;2022-08-14T04:46:16;4.30;;;4.00;;
553;SDS011;59;48.778;9.156;2022-08-14T04:48:42;5.30;;;5.00;;
553;SDS011;59;48.778;9.156;2022-08-14T04:51:10;4.97;;;4.67;;
553;SDS011;59;48.778;9.156;2022-08-14T04:53:37;5.07;;;4.60;;
553;SDS011;59;48.778;9.156;2022-08-14T04:56:07;5.00;;;4.67;;
553;SDS011;59;48.778;9.156;2022-08-14T04:58:33;7.10;;;4.63;;
553;SDS011;59;48.778;9.156;2022-08-14T05:01:00;5.17;;;4.93;;
553;SDS011;59;48.778;9.156;2022-08-14T05:03:29;5.13;;;4.77;;
553;SDS011;59;48.778;9.156;2022-08-14T05:05:59;5.87;;;5.57;;
553;SDS011;59;48.778;9.156;2022-08-14T05:08:26;5.73;;;4.93;;
553;SDS011;59;48.778;9.156;2022-08-14T05:10:55;5.13;;;4.67;;
553;SDS011;59;48.778;9.156;2022-08-14T05:13:22;6.43;;;5.07;;
553;SDS011;59;48.778;9.156;2022-08-14T05:15:50;5.03;;;4.73;;
553;SDS011;59;48.778;9.156;2022-08-14T05:18:20;4.87;;;4.57;;
553;SDS011;59;48.778;9.156;2022-08-14T05:20:50;4.90;;;4.60;;
553;SDS011;59;48.778;9.156;2022-08-14T05:23:24;6.23;;;5.00;;
553;SDS011;59;48.778;9.156;2022-08-14T05:25:53;4.40;;;4.10;;
553;SDS011;59;48.778;9.156;2022-08-14T05:28:24;4.80;;;4.50;;
553;SDS011;59;48.778;9.156;2022-08-14T05:30:55;5.40;;;4.47;;
553;SDS011;59;48.778;9.156;2022-08-14T05:33:22;5.53;;;4.93;;
553;SDS011;59;48.778;9.156;2022-08-14T05:35:50;5.07;;;4.50;;
553;SDS011;59;48.778;9.156;2022-08-14T05:38:20;4.60;;;4.33;;
553;SDS011;59;48.778;9.156;2022-08-14T05:40:46;4.53;;;4.23;;
553;SDS011;59;48.778;9.156;2022-08-14T05:43:13;4.47;;;4.13;;
553;SDS011;59;48.778;9.156;2022-08-14T05:45:39;4.57;;;4.20;;
553;SDS011;59;48.778;9.156;2022-08-14T05:48:06;4.43;;;4.17;;
553;SDS011;59;48.778;9.156;2022-08-14T05:50:33;5.90;;;4.77;;
553;SDS011;59;48.778;9.156;2022-08-14T05:52:59;4.40;;;4.10;;
553;SDS011;59;48.778;9.156;2022-08-14T05:55:25;5.30;;;4.33;;
553;SDS011;59;48.778;9.156;2022-08-14T06:00:24;4.60;;;4.30;;
553;SDS011;59;48.778;9.156;2022-08-14T06:02:52;4.87;;;4.53;;
553;SDS011;59;48.778;9.156;2022-08-14T06:05:20;4.60;;;4.30;;
553;SDS011;59;48.778;9.156;2022-08-14T06:07:46;4.40;;;4.13;;
553;SDS011;59;48.778;9.156;2022-08-14T06:10:12;5.20;;;4.60;;
553;SDS011;59;48.778;9.156;2022-08-14T06:12:38;4.67;;;4.37;;
553;SDS011;59;48.778;9.156;2022-08-14T06:15:05;4.50;;;4.20;;
553;SDS011;59;48.778;9.156;2022-08-14T06:17:41;4.40;;;4.10;;
553;SDS011;59;48.778;9.156;2022-08-14T06:20:11;5.50;;;4.10;;
553;SDS011;59;48.778;9.156;2022-08-14T06:22:39;5.47;;;4.97;;
553;SDS011;59;48.778;9.156;2022-08-14T06:25:05;4.53;;;4.23;;
553;SDS011;59;48.778;9.156;2022-08-14T06:27:42;4.83;;;4.53;;
553;SDS011;59;48.778;9.156;2022-08-14T06:30:17;4.43;;;4.13;;
553;SDS011;59;48.778;9.156;2022-08-14T06:32:44;4.10;;;3.90;;
553;SDS011;59;48.778;9.156;2022-08-14T06:35:11;4.30;;;4.00;;
553;SDS011;59;48.778;9.156;2022-08-14T06:37:42;4.27;;;4.00;;
553;SDS011;59;48.778;9.156;2022-08-14T06:40:13;4.80;;;4.50;;
553;SDS011;59;48.778;9.156;2022-08-14T06:42:44;5.17;;;4.70;;
553;SDS011;59;48.778;9.156;2022-08-14T06:45:10;4.00;;;3.80;;
553;SDS011;59;48.778;9.156;2022-08-14T06:47:37;4.60;;;4.30;;
553;SDS011;59;48.778;9.156;2022-08-14T06:50:08;6.30;;;4.57;;
553;SDS011;59;48.778;9.156;2022-08-14T06:52:35;5.43;;;4.20;;
553;SDS011;59;48.778;9.156;2022-08-14T06:55:02;4.77;;;4.50;;
553;SDS011;59;48.778;9.156;2022-08-14T06:57:35;4.40;;;4.10;;
553;SDS011;59;48.778;9.156;2022-08-14T07:00:07;4.63;;;4.30;;
553;SDS011;59;48.778;9.156;2022-08-14T07:02:34;4.90;;;4.60;;
553;SDS011;59;48.778;9.156;2022-08-14T07:05:18;4.23;;;3.83;;
553;SDS011;59;48.778;9.156;2022-08-14T07:08:02;5.70;;;4.23;;
553;SDS011;59;48.778;9.156;2022-08-14T07:10:28;3.90;;;3.80;;
553;SDS011;59;48.778;9.156;2022-08-14T07:12:54;4.40;;;4.10;;
553;SDS011;59;48.778;9.156;2022-08-14T07:15:20;4.03;;;3.87;;
553;SDS011;59;48.778;9.156;2022-08-14T07:17:46;4.50;;;4.00;;
553;SDS011;59;48.778;9.156;2022-08-14T07:20:12;3.50;;;3.33;;
553;SDS011;59;48.778;9.156;2022-08-14T07:22:38;4.50;;;4.20;;
553;SDS011;59;48.778;9.156;2022-08-14T07:25:04;4.60;;;4.30;;
553;SDS011;59;48.778;9.156;2022-08-14T07:27:30;4.30;;;4.00;;
553;SDS011;59;48.778;9.156;2022-08-14T07:29:56;4.03;;;3.90;;
553;SDS011;59;48.778;9.156;2022-08-14T07:32:21;4.60;;;4.30;;
553;SDS011;59;48.778;9.156;2022-08-14T07:34:47;4.10;;;3.80;;
553;SDS011;59;48.778;9.156;2022-08-14T07:37:13;3.90;;;3.70;;
553;SDS011;59;48.778;9.156;2022-08-14T07:39:38;4.17;;;3.80;;
553;SDS011;59;48.778;9.156;2022-08-14T07:42:04;5.07;;;3.80;;
553;SDS011;59;48.778;9.156;2022-08-14T07:44:30;7.00;;;3.57;;
553;SDS011;59;48.778;9.156;2022-08-14T07:46:56;3.80;;;3.60;;
553;SDS011;59;48.778;9.156;2022-08-14T07:49:22;3.40;;;3.20;;
553;SDS011;59;48.778;9.156;2022-08-14T07:51:48;3.80;;;3.60;;
553;SDS011;59;48.778;9.156;2022-08-14T07:54:14;7.00;;;3.90;;
553;SDS011;59;48.778;9.156;2022-08-14T07:56:40;6.57;;;4.30;;
553;SDS011;59;48.778;9.156;2022-08-14T07:59:06;5.00;;;4.20;;
553;SDS011;59;48.778;9.156;2022-08-14T08:01:32;5.60;;;4.40;;
553;SDS011;59;48.778;9.156;2022-08-14T08:03:58;4.10;;;3.90;;
553;SDS011;59;48.778;9.156;2022-08-14T08:06:27;5.67;;;4.30;;
553;SDS011;59;48.778;9.156;2022-08-14T08:08:54;4.53;;;4.27;;
553;SDS011;59;48.778;9.156;2022-08-14T08:11:24;4.33;;;4.00;;
553;SDS011;59;48.778;9.156;2022-08-14T08:13:51;3.90;;;3.70;;
553;SDS011;59;48.778;9.156;2022-08-14T08:16:17;5.30;;;3.90;;
553;SDS011;59;48.778;9.156;2022-08-14T08:18:48;4.13;;;3.77;;
553;SDS011;59;48.778;9.156;2022-08-14T08:21:14;3.63;;;3.30;;
553;SDS011;59;48.778;9.156;2022-08-14T08:23:40;5.17;;;4.10;;
553;SDS011;59;48.778;9.156;2022-08-14T08:26:06;4.67;;;3.80;;
553;SDS011;59;48.778;9.156;2022-08-14T08:28:32;5.50;;;4.50;;
553;SDS011;59;48.778;9.156;2022-08-14T08:30:59;3.57;;;3.37;;
553;SDS011;59;48.778;9.156;2022-08-14T08:33:26;3.53;;;3.33;;
553;SDS011;59;48.778;9.156;2022-08-14T08:35:56;3.20;;;3.00;;
553;SDS011;59;48.778;9.156;2022-08-14T08:38:23;3.43;;;3.13;;
553;SDS011;59;48.778;9.156;2022-08-14T08:40:51;3.30;;;3.10;;
553;SDS011;59;48.778;9.156;2022-08-14T08:43:20;3.33;;;3.10;;
553;SDS011;59;48.778;9.156;2022-08-14T08:48:20;14.17;;;12.03;;
553;SDS011;59;48.778;9.156;2022-08-14T08:50:46;7.87;;;6.90;;
553;SDS011;59;48.778;9.156;2022-08-14T08:53:12;5.63;;;3.20;;
553;SDS011;59;48.778;9.156;2022-08-14T08:55:41;3.83;;;3.43;;
553;SDS011;59;48.778;9.156;2022-08-14T08:58:08;3.10;;;2.80;;
553;SDS011;59;48.778;9.156;2022-08-14T09:00:36;4.10;;;3.00;;
553;SDS011;59;48.778;9.156;2022-08-14T09:03:09;8.57;;;4.20;;
553;SDS011;59;48.778;9.156;2022-08-14T09:05:37;4.47;;;3.60;;
553;SDS011;59;48.778;9.156;2022-08-14T09:08:17;4.60;;;3.30;;
553;SDS011;59;48.778;9.156;2022-08-14T09:10:45;4.10;;;3.40;;
553;SDS011;59;48.778;9.156;2022-08-14T09:13:11;3.50;;;3.30;;
553;SDS011;59;48.778;9.156;2022-08-14T09:15:40;4.00;;;3.70;;
553;SDS011;59;48.778;9.156;2022-08-14T09:18:07;4.80;;;3.70;;
553;SDS011;59;48.778;9.156;2022-08-14T09:20:36;3.50;;;3.30;;
553;SDS011;59;48.778;9.156;2022-08-14T09:23:04;4.00;;;3.80;;
553;SDS011;59;48.778;9.156;2022-08-14T09:25:30;4.10;;;3.40;;
553;SDS011;59;48.778;9.156;2022-08-14T09:27:56;4.30;;;4.00;;
553;SDS011;59;48.778;9.156;2022-08-14T09:30:22;3.70;;;3.50;;
553;SDS011;59;48.778;9.156;2022-08-14T09:41:12;4.30;;;4.00;;
553;SDS011;59;48.778;9.156;2022-08-14T09:43:58;4.90;;;3.77;;
553;SDS011;59;48.778;9.156;2022-08-14T09:46:27;4.37;;;4.07;;
553;SDS011;59;48.778;9.156;2022-08-14T09:48:59;3.97;;;3.50;;
553;SDS011;59;48.778;9.156;2022-08-14T09:51:26;3.73;;;3.53;;
553;SDS011;59;48.778;9.156;2022-08-14T09:54:04;6.90;;;3.83;;
553;SDS011;59;48.778;9.156;2022-08-14T09:56:42;6.13;;;5.80;;
553;SDS011;59;48.778;9.156;2022-08-14T09:59:12;11.60;;;7.70;;
553;SDS011;59;48.778;9.156;2022-08-14T10:01:40;4.90;;;4.53;;
553;SDS011;59;48.778;9.156;2022-08-14T10:04:18;4.60;;;4.30;;
553;SDS011;59;48.778;9.156;2022-08-14T10:06:48;4.50;;;3.90;;
553;SDS011;59;48.778;9.156;2022-08-14T10:09:15;4.30;;;4.00;;
553;SDS011;59;48.778;9.156;2022-08-14T10:11:51;4.67;;;4.37;;
553;SDS011;59;48.778;9.156;2022-08-14T10:14:22;4.40;;;4.13;;
553;SDS011;59;48.778;9.156;2022-08-14T10:16:53;4.90;;;4.00;;
553;SDS011;59;48.778;9.156;2022-08-14T10:19:21;4.53;;;4.23;;
553;SDS011;59;48.778;9.156;2022-08-14T10:21:56;4.70;;;3.80;;
553;SDS011;59;48.778;9.156;2022-08-14T10:26:54;5.93;;;3.80;;
553;SDS011;59;48.778;9.156;2022-08-14T10:29:28;4.60;;;4.20;;
553;SDS011;59;48.778;9.156;2022-08-14T10:31:59;4.40;;;4.10;;
553;SDS011;59;48.778;9.156;2022-08-14T10:34:35;4.53;;;4.30;;
553;SDS011;59;48.778;9.156;2022-08-14T10:37:10;4.03;;;3.83;;
553;SDS011;59;48.778;9.156;2022-08-14T10:39:37;4.50;;;4.20;;
553;SDS011;59;48.778;9.156;2022-08-14T10:42:05;4.10;;;3.90;;
553;SDS011;59;48.778;9.156;2022-08-14T10:44:36;4.47;;;4.17;;
553;SDS011;59;48.778;9.156;2022-08-14T10:47:03;4.10;;;3.90;;
553;SDS011;59;48.778;9.156;2022-08-14T10:49:33;7.50;;;4.60;;
553;SDS011;59;48.778;9.156;2022-08-14T10:52:01;4.83;;;3.97;;
553;SDS011;59;48.778;9.156;2022-08-14T10:54:39;5.97;;;4.27;;
553;SDS011;59;48.778;9.156;2022-08-14T10:57:13;4.00;;;3.83;;
553;SDS011;59;48.778;9.156;2022-08-14T11:00:01;5.70;;;4.43;;
553;SDS011;59;48.778;9.156;2022-08-14T11:02:39;6.03;;;4.53;;
553;SDS011;59;48.778;9.156;2022-08-14T11:05:09;4.70;;;4.30;;
553;SDS011;59;48.778;9.156;2022-08-14T11:07:41;5.43;;;4.30;;
553;SDS011;59;48.778;9.156;2022-08-14T11:10:09;10.67;;;8.80;;
553;SDS011;59;48.778;9.156;2022-08-14T11:12:53;16.40;;;13.63;;
553;SDS011;59;48.778;9.156;2022-08-14T11:15:23;8.23;;;6.80;;
553;SDS011;59;48.778;9.156;2022-08-14T11:17:51;8.60;;;5.57;;
553;SDS011;59;48.778;9.156;2022-08-14T11:20:21;5.00;;;4.37;;
553;SDS011;59;48.778;9.156;2022-08-14T11:22:53;4.37;;;3.90;;
553;SDS011;59;48.778;9.156;2022-08-14T11:25:21;4.60;;;3.87;;
553;SDS011;59;48.778;9.156;2022-08-14T11:27:49;6.40;;;3.80;;
553;SDS011;59;48.778;9.156;2022-08-14T11:30:17;3.83;;;3.63;;
553;SDS011;59;48.778;9.156;2022-08-14T11:32:47;4.40;;;3.80;;
553;SDS011;59;48.778;9.156;2022-08-14T11:35:14;3.90;;;3.73;;
553;SDS011;59;48.778;9.156;2022-08-14T11:37:53;4.07;;;3.87;;
553;SDS011;59;48.778;9.156;2022-08-14T11:40:21;3.87;;;3.73;;
553;SDS011;59;48.778;9.156;2022-08-14T11:42:48;3.90;;;3.70;;
553;SDS011;59;48.778;9.156;2022-08-14T11:45:28;4.07;;;3.50;;
553;SDS011;59;48.778;9.156;2022-08-14T11:47:58;3.87;;;3.30;;
553;SDS011;59;48.778;9.156;2022-08-14T11:50:29;4.07;;;3.87;;
553;SDS011;59;48.778;9.156;2022-08-14T11:52:56;3.70;;;3.50;;
553;SDS011;59;48.778;9.156;2022-08-14T11:55:24;5.57;;;3.47;;
553;SDS011;59;48.778;9.156;2022-08-14T11:58:00;7.70;;;3.70;;
553;SDS011;59;48.778;9.156;2022-08-14T12:00:29;4.17;;;3.93;;
553;SDS011;59;48.778;9.156;2022-08-14T12:02:56;4.80;;;4.07;;
553;SDS011;59;48.778;9.156;2022-08-14T12:05:36;4.40;;;4.10;;
553;SDS011;59;48.778;9.156;2022-08-14T12:08:04;4.30;;;4.00;;
553;SDS011;59;48.778;9.156;2022-08-14T12:10:31;4.60;;;4.03;;
553;SDS011;59;48.778;9.156;2022-08-14T12:13:11;4.03;;;3.83;;
553;SDS011;59;48.778;9.156;2022-08-14T12:15:39;4.30;;;4.07;;
553;SDS011;59;48.778;9.156;2022-08-14T12:18:05;4.60;;;4.30;;
553;SDS011;59;48.778;9.156;2022-08-14T12:20:32;4.40;;;4.10;;
553;SDS011;59;48.778;9.156;2022-08-14T12:23:03;4.27;;;3.97;;
553;SDS011;59;48.778;9.156;2022-08-14T12:25:30;4.50;;;4.20;;
553;SDS011;59;48.778;9.156;2022-08-14T12:27:58;4.17;;;3.93;;
553;SDS011;59;48.778;9.156;2022-08-14T12:30:33;4.03;;;3.70;;
553;SDS011;59;48.778;9.156;2022-08-14T12:32:59;7.07;;;6.33;;
553;SDS011;59;48.778;9.156;2022-08-14T12:35:36;8.83;;;8.20;;
553;SDS011;59;48.778;9.156;2022-08-14T12:38:02;13.23;;;12.53;;
553;SDS011;59;48.778;9.156;2022-08-14T12:40:28;6.10;;;5.90;;
553;SDS011;59;48.778;9.156;2022-08-14T12:43:02;6.53;;;4.67;;
553;SDS011;59;48.778;9.156;2022-08-14T12:45:29;4.60;;;4.30;;
553;SDS011;59;48.778;9.156;2022-08-14T12:48:01;4.53;;;4.27;;
553;SDS011;59;48.778;9.156;2022-08-14T12:50:38;4.50;;;4.20;;
553;SDS011;59;48.778;9.156;2022-08-14T12:53:06;3.83;;;3.70;;
553;SDS011;59;48.778;9.156;2022-08-14T12:55:35;3.87;;;3.67;;
553;SDS011;59;48.778;9.156;2022-08-14T12:58:03;3.40;;;3.20;;
553;SDS011;59;48.778;9.156;2022-08-14T13:00:30;3.53;;;3.33;;
553;SDS011;59;48.778;9.156;2022-08-14T13:03:01;5.20;;;3.87;;
553;SDS011;59;48.778;9.156;2022-08-14T13:05:30;4.30;;;3.70;;
553;SDS011;59;48.778;9.156;2022-08-14T13:07:59;3.60;;;3.40;;
553;SDS011;59;48.778;9.156;2022-08-14T13:10:30;3.53;;;3.20;;
553;SDS011;59;48.778;9.156;2022-08-14T13:12:59;3.43;;;3.23;;
553;SDS011;59;48.778;9.156;2022-08-14T13:15:30;3.20;;;3.00;;
553;SDS011;59;48.778;9.156;2022-08-14T13:17:56;3.30;;;3.17;;
553;SDS011;59;48.778;9.156;2022-08-14T13:20:25;3.23;;;3.10;;
553;SDS011;59;48.778;9.156;2022-08-14T13:22:53;3.20;;;2.90;;
553;SDS011;59;48.778;9.156;2022-08-14T13:25:22;3.57;;;3.37;;
553;SDS011;59;48.778;9.156;2022-08-14T13:27:50;3.10;;;2.90;;
553;SDS011;59;48.778;9.156;2022-08-14T13:30:19;3.20;;;3.00;;
553;SDS011;59;48.778;9.156;2022-08-14T13:32:46;3.50;;;3.30;;
553;SDS011;59;48.778;9.156;2022-08-14T13:35:13;3.17;;;2.97;;
553;SDS011;59;48.778;9.156;2022-08-14T13:37:40;3.17;;;3.00;;
553;SDS011;59;48.778;9.156;2022-08-14T13:40:08;3.30;;;3.10;;
553;SDS011;59;48.778;9.156;2022-08-14T13:42:37;2.90;;;2.70;;
553;SDS011;59;48.778;9.156;2022-08-14T13:45:09;2.87;;;2.73;;
553;SDS011;59;48.778;9.156;2022-08-14T13:47:35;3.10;;;3.00;;
553;SDS011;59;48.778;9.156;2022-08-14T13:50:03;5.30;;;2.70;;
553;SDS011;59;48.778;9.156;2022-08-14T13:52:34;2.77;;;2.63;;
553;SDS011;59;48.778;9.156;2022-08-14T13:55:05;3.30;;;3.10;;
553;SDS011;59;48.778;9.156;2022-08-14T13:57:32;13.20;;;11.00;;
553;SDS011;59;48.778;9.156;2022-08-14T14:00:01;4.40;;;4.10;;
553;SDS011;59;48.778;9.156;2022-08-14T14:02:37;5.00;;;4.70;;
553;SDS011;59;48.778;9.156;2022-08-14T14:05:04;4.80;;;3.30;;
553;SDS011;59;48.778;9.156;2022-08-14T14:07:30;3.97;;;3.57;;
553;SDS011;59;48.778;9.156;2022-08-14T14:09:59;3.50;;;3.40;;
553;SDS011;59;48.778;9.156;2022-08-14T14:12:29;4.03;;;3.87;;
553;SDS011;59;48.778;9.156;2022-08-14T14:14:55;3.87;;;3.47;;
553;SDS011;59;48.778;9.156;2022-08-14T14:17:24;3.07;;;2.87;;
553;SDS011;59;48.778;9.156;2022-08-14T14:19:52;2.90;;;2.70;;
553;SDS011;59;48.778;9.156;2022-08-14T14:22:17;3.00;;;2.80;;
553;SDS011;59;48.778;9.156;2022-08-14T14:24:43;4.23;;;2.63;;
553;SDS011;59;48.778;9.156;2022-08-14T14:27:10;2.93;;;2.73;;
553;SDS011;59;48.778;9.156;2022-08-14T14:29:38;3.70;;;2.50;;
553;SDS011;59;48.778;9.156;2022-08-14T14:32:05;3.30;;;2.40;;
553;SDS011;59;48.778;9.156;2022-08-14T14:34:31;3.33;;;2.57;;
553;SDS011;59;48.778;9.156;2022-08-14T14:37:01;3.40;;;2.73;;
553;SDS011;59;48.778;9.156;2022-08-14T14:39:29;2.80;;;2.60;;
553;SDS011;59;48.778;9.156;2022-08-14T14:41:56;2.80;;;2.60;;
553;SDS011;59;48.778;9.156;2022-08-14T14:44:25;3.67;;;2.83;;
553;SDS011;59;48.778;9.156;2022-08-14T14:46:56;5.20;;;2.70;;
553;SDS011;59;48.778;9.156;2022-08-14T14:49:22;2.97;;;2.77;;
553;SDS011;59;48.778;9.156;2022-08-14T14:51:49;2.60;;;2.40;;
553;SDS011;59;48.778;9.156;2022-08-14T14:54:16;3.00;;;2.80;;
553;SDS011;59;48.778;9.156;2022-08-14T14:56:43;2.87;;;2.67;;
553;SDS011;59;48.778;9.156;2022-08-14T14:59:12;5.53;;;3.33;;
553;SDS011;59;48.778;9.156;2022-08-14T15:01:38;6.80;;;3.60;;
553;SDS011;59;48.778;9.156;2022-08-14T15:04:04;6.27;;;3.47;;
553;SDS011;59;48.778;9.156;2022-08-14T15:06:31;4.47;;;3.00;;
553;SDS011;59;48.778;9.156;2022-08-14T15:08:58;5.40;;;3.60;;
553;SDS011;59;48.778;9.156;2022-08-14T15:11:24;4.70;;;3.20;;
553;SDS011;59;48.778;9.156;2022-08-14T15:13:50;4.37;;;2.83;;
553;SDS011;59;48.778;9.156;2022-08-14T15:16:16;4.50;;;3.10;;
553;SDS011;59;48.778;9.156;2022-08-14T15:18:42;3.27;;;3.00;;
553;SDS011;59;48.778;9.156;2022-08-14T15:21:09;4.30;;;2.87;;
553;SDS011;59;48.778;9.156;2022-08-14T15:23:35;3.23;;;2.90;;
553;SDS011;59;48.778;9.156;2022-08-14T15:26:01;4.33;;;2.90;;
553;SDS011;59;48.778;9.156;2022-08-14T15:28:27;2.70;;;2.50;;
553;SDS011;59;48.778;9.156;2022-08-14T15:30:53;2.43;;;2.30;;
553;SDS011;59;48.778;9.156;2022-08-14T15:33:19;2.27;;;2.10;;
553;SDS011;59;48.778;9.156;2022-08-14T15:36:05;3.20;;;2.63;;
553;SDS011;59;48.778;9.156;2022-08-14T15:38:32;2.80;;;2.60;;
553;SDS011;59;48.778;9.156;2022-08-14T15:40:58;2.80;;;2.60;;
553;SDS011;59;48.778;9.156;2022-08-14T15:43:26;2.93;;;2.60;;
553;SDS011;59;48.778;9.156;2022-08-14T15:45:52;3.43;;;2.63;;
553;SDS011;59;48.778;9.156;2022-08-14T15:48:20;3.00;;;2.80;;
553;SDS011;59;48.778;9.156;2022-08-14T15:50:45;4.23;;;2.60;;
553;SDS011;59;48.778;9.156;2022-08-14T15:53:11;2.70;;;2.50;;
553;SDS011;59;48.778;9.156;2022-08-14T15:55:37;3.33;;;3.13;;
553;SDS011;59;48.778;9.156;2022-08-14T15:58:03;2.93;;;2.73;;
553;SDS011;59;48.778;9.156;2022-08-14T16:00:30;3.43;;;2.73;;
553;SDS011;59;48.778;9.156;2022-08-14T16:03:15;3.23;;;3.10;;
553;SDS011;59;48.778;9.156;2022-08-14T16:05:44;8.43;;;6.43;;
553;SDS011;59;48.778;9.156;2022-08-14T16:08:10;9.23;;;8.80;;
553;SDS011;59;48.778;9.156;2022-08-14T16:10:36;9.87;;;8.33;;
553;SDS011;59;48.778;9.156;2022-08-14T16:13:02;10.30;;;7.80;;
553;SDS011;59;48.778;9.156;2022-08-14T16:15:27;13.87;;;8.17;;
553;SDS011;59;48.778;9.156;2022-08-14T16:17:55;13.93;;;7.47;;
553;SDS011;59;48.778;9.156;2022-08-14T16:20:21;11.13;;;7.53;;
553;SDS011;59;48.778;9.156;2022-08-14T16:22:47;20.10;;;8.00;;
553;SDS011;59;48.778;9.156;2022-08-14T16:25:13;13.87;;;6.80;;
553;SDS011;59;48.778;9.156;2022-08-14T16:27:39;11.03;;;5.33;;